sensor_id;sensor_type;location;lat;lon;timestamp;P1;durP1;ratioP1;P2;durP2;ratioP2
11187;SDS011;5650;52.700;7.306;2022-08-21T00:02:20;12.50;;;4.70;;
11187;SDS011;5650;52.700;7.306;2022-08-21T00:04:54;9.90;;;4.20;;
11187;SDS011;5650;52.700;7.306;2022-08-21T00:07:21;11.43;;;3.70;;
11187;SDS011;5650;52.700;7.306;2022-08-21T00:09:52;9.35;;;3.33;;
11187;SDS011;5650;52.700;7.306;2022-08-21T00:12:22;10.88;;;4.18;;
11187;SDS011;5650;52.700;7.306;2022-08-21T00:14:50;7.18;;;3.30;;
11187;SDS011;5650;52.700;7.306;2022-08-21T00:17:20;15.90;;;3.72;;
11187;SDS011;5650;52.700;7.306;2022-08-21T00:19:48;5.88;;;3.17;;
11187;SDS011;5650;52.700;7.306;2022-08-21T00:22:18;8.38;;;3.20;;
11187;SDS011;5650;52.700;7.306;2022-08-21T00:24:45;12.23;;;4.22;;
11187;SDS011;5650;52.700;7.306;2022-08-21T00:27:15;11.70;;;4.00;;
11187;SDS011;5650;52.700;7.306;2022-08-21T00:29:44;11.20;;;4.72;;
11187;SDS011;5650;52.700;7.306;2022-08-21T00:32:11;9.50;;;4.78;;
11187;SDS011;5650;52.700;7.306;2022-08-21T00:34:38;9.40;;;3.92;;
11187;SDS011;5650;52.700;7.306;2022-08-21T00:37:05;11.02;;;3.58;;
11187;SDS011;5650;52.700;7.306;2022-08-21T00:39:37;7.63;;;4.00;;
11187;SDS011;5650;52.700;7.306;2022-08-21T00:42:07;10.75;;;4.00;;
11187;SDS011;5650;52.700;7.306;2022-08-21T00:44:34;10.20;;;3.78;;
11187;SDS011;5650;52.700;7.306;2022-08-21T00:47:08;9.02;;;3.20;;
11187;SDS011;5650;52.700;7.306;2022-08-21T00:49:35;8.35;;;3.45;;
11187;SDS011;5650;52.700;7.306;2022-08-21T00:52:06;7.78;;;3.28;;
11187;SDS011;5650;52.700;7.306;2022-08-21T00:54:40;8.35;;;3.28;;
11187;SDS011;5650;52.700;7.306;2022-08-21T00:57:13;8.65;;;3.72;;
11187;SDS011;5650;52.700;7.306;2022-08-21T00:59:43;10.80;;;4.22;;
11187;SDS011;5650;52.700;7.306;2022-08-21T01:02:15;8.60;;;3.58;;
11187;SDS011;5650;52.700;7.306;2022-08-21T01:04:43;8.75;;;3.95;;
11187;SDS011;5650;52.700;7.306;2022-08-21T01:07:17;6.97;;;3.28;;
11187;SDS011;5650;52.700;7.306;2022-08-21T01:09:45;6.82;;;3.72;;
11187;SDS011;5650;52.700;7.306;2022-08-21T01:12:13;7.32;;;3.72;;
11187;SDS011;5650;52.700;7.306;2022-08-21T01:14:44;9.10;;;3.35;;
11187;SDS011;5650;52.700;7.306;2022-08-21T01:17:12;7.15;;;3.92;;
11187;SDS011;5650;52.700;7.306;2022-08-21T01:19:48;7.18;;;3.63;;
11187;SDS011;5650;52.700;7.306;2022-08-21T01:22:25;9.40;;;4.22;;
11187;SDS011;5650;52.700;7.306;2022-08-21T01:24:52;9.80;;;4.20;;
11187;SDS011;5650;52.700;7.306;2022-08-21T01:27:19;8.82;;;3.65;;
11187;SDS011;5650;52.700;7.306;2022-08-21T01:29:49;12.63;;;4.40;;
11187;SDS011;5650;52.700;7.306;2022-08-21T01:32:21;8.40;;;3.80;;
11187;SDS011;5650;52.700;7.306;2022-08-21T01:34:50;11.57;;;3.92;;
11187;SDS011;5650;52.700;7.306;2022-08-21T01:37:18;11.55;;;4.55;;
11187;SDS011;5650;52.700;7.306;2022-08-21T01:42:19;10.65;;;4.10;;
11187;SDS011;5650;52.700;7.306;2022-08-21T01:44:46;10.45;;;4.28;;
11187;SDS011;5650;52.700;7.306;2022-08-21T01:47:13;11.98;;;4.15;;
11187;SDS011;5650;52.700;7.306;2022-08-21T01:49:41;9.20;;;4.30;;
11187;SDS011;5650;52.700;7.306;2022-08-21T01:52:08;10.18;;;3.95;;
11187;SDS011;5650;52.700;7.306;2022-08-21T01:54:39;11.40;;;4.68;;
11187;SDS011;5650;52.700;7.306;2022-08-21T01:57:07;11.55;;;4.97;;
11187;SDS011;5650;52.700;7.306;2022-08-21T01:59:35;13.50;;;4.55;;
11187;SDS011;5650;52.700;7.306;2022-08-21T02:02:03;13.75;;;4.93;;
11187;SDS011;5650;52.700;7.306;2022-08-21T02:04:33;16.48;;;5.63;;
11187;SDS011;5650;52.700;7.306;2022-08-21T02:07:09;10.05;;;4.90;;
11187;SDS011;5650;52.700;7.306;2022-08-21T02:09:36;13.40;;;6.10;;
11187;SDS011;5650;52.700;7.306;2022-08-21T02:12:06;9.90;;;5.53;;
11187;SDS011;5650;52.700;7.306;2022-08-21T02:14:35;11.40;;;5.50;;
11187;SDS011;5650;52.700;7.306;2022-08-21T02:17:05;10.68;;;5.28;;
11187;SDS011;5650;52.700;7.306;2022-08-21T02:19:32;11.70;;;5.22;;
11187;SDS011;5650;52.700;7.306;2022-08-21T02:22:10;10.38;;;5.47;;
11187;SDS011;5650;52.700;7.306;2022-08-21T02:24:38;11.15;;;6.50;;
11187;SDS011;5650;52.700;7.306;2022-08-21T02:27:08;11.23;;;6.47;;
11187;SDS011;5650;52.700;7.306;2022-08-21T02:29:40;14.43;;;6.65;;
11187;SDS011;5650;52.700;7.306;2022-08-21T02:32:10;12.82;;;6.00;;
11187;SDS011;5650;52.700;7.306;2022-08-21T02:34:40;10.98;;;6.80;;
11187;SDS011;5650;52.700;7.306;2022-08-21T02:37:08;11.73;;;6.47;;
11187;SDS011;5650;52.700;7.306;2022-08-21T02:39:35;13.88;;;6.13;;
11187;SDS011;5650;52.700;7.306;2022-08-21T02:44:53;11.50;;;5.78;;
11187;SDS011;5650;52.700;7.306;2022-08-21T02:47:20;13.55;;;5.50;;
11187;SDS011;5650;52.700;7.306;2022-08-21T02:49:47;11.63;;;5.07;;
11187;SDS011;5650;52.700;7.306;2022-08-21T02:52:15;11.00;;;6.72;;
11187;SDS011;5650;52.700;7.306;2022-08-21T02:54:54;10.52;;;6.13;;
11187;SDS011;5650;52.700;7.306;2022-08-21T02:57:21;10.40;;;6.10;;
11187;SDS011;5650;52.700;7.306;2022-08-21T02:59:48;14.40;;;5.90;;
11187;SDS011;5650;52.700;7.306;2022-08-21T03:02:24;12.57;;;5.97;;
11187;SDS011;5650;52.700;7.306;2022-08-21T03:04:52;12.00;;;6.75;;
11187;SDS011;5650;52.700;7.306;2022-08-21T03:07:19;9.82;;;5.93;;
11187;SDS011;5650;52.700;7.306;2022-08-21T03:09:46;10.23;;;5.65;;
11187;SDS011;5650;52.700;7.306;2022-08-21T03:12:16;11.82;;;5.95;;
11187;SDS011;5650;52.700;7.306;2022-08-21T03:14:43;11.35;;;6.07;;
11187;SDS011;5650;52.700;7.306;2022-08-21T03:17:11;11.18;;;5.78;;
11187;SDS011;5650;52.700;7.306;2022-08-21T03:19:39;14.90;;;5.50;;
11187;SDS011;5650;52.700;7.306;2022-08-21T03:22:06;11.30;;;5.72;;
11187;SDS011;5650;52.700;7.306;2022-08-21T03:24:36;11.10;;;5.65;;
11187;SDS011;5650;52.700;7.306;2022-08-21T03:27:03;9.20;;;5.50;;
11187;SDS011;5650;52.700;7.306;2022-08-21T03:29:33;7.50;;;5.15;;
11187;SDS011;5650;52.700;7.306;2022-08-21T03:32:00;10.57;;;5.10;;
11187;SDS011;5650;52.700;7.306;2022-08-21T03:34:35;9.60;;;4.82;;
11187;SDS011;5650;52.700;7.306;2022-08-21T03:37:07;11.93;;;5.82;;
11187;SDS011;5650;52.700;7.306;2022-08-21T03:39:36;9.98;;;5.22;;
11187;SDS011;5650;52.700;7.306;2022-08-21T03:42:06;14.43;;;5.50;;
11187;SDS011;5650;52.700;7.306;2022-08-21T03:44:36;11.50;;;5.82;;
11187;SDS011;5650;52.700;7.306;2022-08-21T03:47:04;10.35;;;6.57;;
11187;SDS011;5650;52.700;7.306;2022-08-21T03:49:31;13.85;;;8.27;;
11187;SDS011;5650;52.700;7.306;2022-08-21T03:51:59;12.25;;;7.40;;
11187;SDS011;5650;52.700;7.306;2022-08-21T03:54:30;23.98;;;7.18;;
11187;SDS011;5650;52.700;7.306;2022-08-21T03:57:01;15.43;;;6.80;;
11187;SDS011;5650;52.700;7.306;2022-08-21T03:59:29;10.38;;;6.97;;
11187;SDS011;5650;52.700;7.306;2022-08-21T04:02:00;11.95;;;7.03;;
11187;SDS011;5650;52.700;7.306;2022-08-21T04:04:30;9.93;;;6.72;;
11187;SDS011;5650;52.700;7.306;2022-08-21T04:06:57;10.00;;;6.97;;
11187;SDS011;5650;52.700;7.306;2022-08-21T04:09:25;17.15;;;8.50;;
11187;SDS011;5650;52.700;7.306;2022-08-21T04:11:54;17.75;;;9.48;;
11187;SDS011;5650;52.700;7.306;2022-08-21T04:14:22;14.43;;;9.20;;
11187;SDS011;5650;52.700;7.306;2022-08-21T04:16:49;12.02;;;8.98;;
11187;SDS011;5650;52.700;7.306;2022-08-21T04:19:19;14.20;;;9.15;;
11187;SDS011;5650;52.700;7.306;2022-08-21T04:21:49;11.45;;;8.90;;
11187;SDS011;5650;52.700;7.306;2022-08-21T04:24:21;16.05;;;9.60;;
11187;SDS011;5650;52.700;7.306;2022-08-21T04:26:48;15.30;;;8.75;;
11187;SDS011;5650;52.700;7.306;2022-08-21T04:29:17;12.07;;;7.78;;
11187;SDS011;5650;52.700;7.306;2022-08-21T04:31:47;10.38;;;7.53;;
11187;SDS011;5650;52.700;7.306;2022-08-21T04:34:14;11.73;;;6.95;;
11187;SDS011;5650;52.700;7.306;2022-08-21T04:36:48;7.53;;;6.53;;
11187;SDS011;5650;52.700;7.306;2022-08-21T04:39:15;11.25;;;6.25;;
11187;SDS011;5650;52.700;7.306;2022-08-21T04:41:45;8.95;;;6.22;;
11187;SDS011;5650;52.700;7.306;2022-08-21T04:44:16;6.78;;;5.57;;
11187;SDS011;5650;52.700;7.306;2022-08-21T04:46:44;8.57;;;6.00;;
11187;SDS011;5650;52.700;7.306;2022-08-21T04:49:14;7.93;;;6.00;;
11187;SDS011;5650;52.700;7.306;2022-08-21T04:51:43;8.50;;;6.15;;
11187;SDS011;5650;52.700;7.306;2022-08-21T04:54:12;9.52;;;6.05;;
11187;SDS011;5650;52.700;7.306;2022-08-21T04:56:44;10.82;;;6.38;;
11187;SDS011;5650;52.700;7.306;2022-08-21T04:59:16;9.15;;;5.75;;
11187;SDS011;5650;52.700;7.306;2022-08-21T05:01:47;9.15;;;6.55;;
11187;SDS011;5650;52.700;7.306;2022-08-21T05:04:21;10.23;;;6.75;;
11187;SDS011;5650;52.700;7.306;2022-08-21T05:06:51;10.88;;;6.15;;
11187;SDS011;5650;52.700;7.306;2022-08-21T05:09:20;11.38;;;6.85;;
11187;SDS011;5650;52.700;7.306;2022-08-21T05:11:48;11.55;;;5.97;;
11187;SDS011;5650;52.700;7.306;2022-08-21T05:14:23;7.65;;;5.70;;
11187;SDS011;5650;52.700;7.306;2022-08-21T05:16:52;9.95;;;6.65;;
11187;SDS011;5650;52.700;7.306;2022-08-21T05:19:19;11.10;;;7.30;;
11187;SDS011;5650;52.700;7.306;2022-08-21T05:21:46;12.23;;;6.88;;
11187;SDS011;5650;52.700;7.306;2022-08-21T05:24:14;12.98;;;7.57;;
11187;SDS011;5650;52.700;7.306;2022-08-21T05:26:41;14.60;;;7.68;;
11187;SDS011;5650;52.700;7.306;2022-08-21T05:29:09;10.93;;;6.97;;
11187;SDS011;5650;52.700;7.306;2022-08-21T05:31:43;13.55;;;7.07;;
11187;SDS011;5650;52.700;7.306;2022-08-21T05:34:11;13.10;;;7.65;;
11187;SDS011;5650;52.700;7.306;2022-08-21T05:36:44;11.10;;;6.88;;
11187;SDS011;5650;52.700;7.306;2022-08-21T05:39:11;9.57;;;6.80;;
11187;SDS011;5650;52.700;7.306;2022-08-21T05:41:44;9.05;;;5.47;;
11187;SDS011;5650;52.700;7.306;2022-08-21T05:44:12;7.53;;;5.13;;
11187;SDS011;5650;52.700;7.306;2022-08-21T05:46:39;9.68;;;5.40;;
11187;SDS011;5650;52.700;7.306;2022-08-21T05:49:14;9.20;;;5.60;;
11187;SDS011;5650;52.700;7.306;2022-08-21T05:51:44;9.00;;;5.20;;
11187;SDS011;5650;52.700;7.306;2022-08-21T05:54:11;7.93;;;4.82;;
11187;SDS011;5650;52.700;7.306;2022-08-21T05:56:41;9.57;;;4.75;;
11187;SDS011;5650;52.700;7.306;2022-08-21T05:59:12;10.02;;;4.97;;
11187;SDS011;5650;52.700;7.306;2022-08-21T06:01:45;7.97;;;4.68;;
11187;SDS011;5650;52.700;7.306;2022-08-21T06:04:14;9.25;;;4.32;;
11187;SDS011;5650;52.700;7.306;2022-08-21T06:06:44;8.48;;;3.90;;
11187;SDS011;5650;52.700;7.306;2022-08-21T06:09:12;6.10;;;3.97;;
11187;SDS011;5650;52.700;7.306;2022-08-21T06:11:39;9.98;;;4.57;;
11187;SDS011;5650;52.700;7.306;2022-08-21T06:14:06;10.70;;;4.05;;
11187;SDS011;5650;52.700;7.306;2022-08-21T06:16:33;11.52;;;4.15;;
11187;SDS011;5650;52.700;7.306;2022-08-21T06:19:00;5.35;;;3.30;;
11187;SDS011;5650;52.700;7.306;2022-08-21T06:21:29;7.72;;;3.60;;
11187;SDS011;5650;52.700;7.306;2022-08-21T06:23:57;9.05;;;3.53;;
11187;SDS011;5650;52.700;7.306;2022-08-21T06:26:24;8.30;;;3.65;;
11187;SDS011;5650;52.700;7.306;2022-08-21T06:28:54;6.90;;;3.60;;
11187;SDS011;5650;52.700;7.306;2022-08-21T06:31:22;6.35;;;3.10;;
11187;SDS011;5650;52.700;7.306;2022-08-21T06:33:51;6.90;;;3.50;;
11187;SDS011;5650;52.700;7.306;2022-08-21T06:36:22;7.13;;;3.53;;
11187;SDS011;5650;52.700;7.306;2022-08-21T06:38:58;7.97;;;3.00;;
11187;SDS011;5650;52.700;7.306;2022-08-21T06:41:26;6.97;;;3.75;;
11187;SDS011;5650;52.700;7.306;2022-08-21T06:43:55;7.55;;;3.30;;
11187;SDS011;5650;52.700;7.306;2022-08-21T06:46:26;11.55;;;3.88;;
11187;SDS011;5650;52.700;7.306;2022-08-21T06:48:55;4.90;;;2.95;;
11187;SDS011;5650;52.700;7.306;2022-08-21T06:51:23;7.35;;;3.40;;
11187;SDS011;5650;52.700;7.306;2022-08-21T06:54:02;8.00;;;3.40;;
11187;SDS011;5650;52.700;7.306;2022-08-21T06:56:29;8.35;;;3.17;;
11187;SDS011;5650;52.700;7.306;2022-08-21T06:58:58;8.27;;;2.70;;
11187;SDS011;5650;52.700;7.306;2022-08-21T07:01:28;7.43;;;2.92;;
11187;SDS011;5650;52.700;7.306;2022-08-21T07:03:59;6.40;;;2.85;;
11187;SDS011;5650;52.700;7.306;2022-08-21T07:06:29;7.18;;;2.83;;
11187;SDS011;5650;52.700;7.306;2022-08-21T07:08:58;8.15;;;3.00;;
11187;SDS011;5650;52.700;7.306;2022-08-21T07:11:28;7.07;;;3.53;;
11187;SDS011;5650;52.700;7.306;2022-08-21T07:13:55;11.25;;;2.83;;
11187;SDS011;5650;52.700;7.306;2022-08-21T07:16:23;8.30;;;2.90;;
11187;SDS011;5650;52.700;7.306;2022-08-21T07:18:50;5.28;;;2.80;;
11187;SDS011;5650;52.700;7.306;2022-08-21T07:21:17;6.47;;;2.58;;
11187;SDS011;5650;52.700;7.306;2022-08-21T07:23:45;8.60;;;2.85;;
11187;SDS011;5650;52.700;7.306;2022-08-21T07:26:15;7.30;;;2.83;;
11187;SDS011;5650;52.700;7.306;2022-08-21T07:28:46;7.43;;;3.15;;
11187;SDS011;5650;52.700;7.306;2022-08-21T07:31:14;9.88;;;3.47;;
11187;SDS011;5650;52.700;7.306;2022-08-21T07:33:42;5.80;;;2.58;;
11187;SDS011;5650;52.700;7.306;2022-08-21T07:36:10;7.10;;;2.58;;
11187;SDS011;5650;52.700;7.306;2022-08-21T07:38:38;8.30;;;2.75;;
11187;SDS011;5650;52.700;7.306;2022-08-21T07:41:07;8.05;;;2.70;;
11187;SDS011;5650;52.700;7.306;2022-08-21T07:43:40;7.00;;;2.50;;
11187;SDS011;5650;52.700;7.306;2022-08-21T07:46:08;7.80;;;3.20;;
11187;SDS011;5650;52.700;7.306;2022-08-21T07:48:35;9.40;;;2.67;;
11187;SDS011;5650;52.700;7.306;2022-08-21T07:51:04;7.93;;;2.70;;
11187;SDS011;5650;52.700;7.306;2022-08-21T07:53:37;9.20;;;2.72;;
11187;SDS011;5650;52.700;7.306;2022-08-21T07:56:05;8.32;;;2.35;;
11187;SDS011;5650;52.700;7.306;2022-08-21T07:58:35;12.10;;;3.30;;
11187;SDS011;5650;52.700;7.306;2022-08-21T08:01:03;7.60;;;2.83;;
11187;SDS011;5650;52.700;7.306;2022-08-21T08:03:33;8.93;;;2.58;;
11187;SDS011;5650;52.700;7.306;2022-08-21T08:06:01;10.93;;;3.30;;
11187;SDS011;5650;52.700;7.306;2022-08-21T08:08:29;8.77;;;2.38;;
11187;SDS011;5650;52.700;7.306;2022-08-21T08:10:57;9.20;;;2.60;;
11187;SDS011;5650;52.700;7.306;2022-08-21T08:13:25;11.45;;;3.33;;
11187;SDS011;5650;52.700;7.306;2022-08-21T08:15:52;9.85;;;2.40;;
11187;SDS011;5650;52.700;7.306;2022-08-21T08:18:19;6.20;;;2.33;;
11187;SDS011;5650;52.700;7.306;2022-08-21T08:20:48;11.85;;;2.63;;
11187;SDS011;5650;52.700;7.306;2022-08-21T08:23:15;9.50;;;2.70;;
11187;SDS011;5650;52.700;7.306;2022-08-21T08:25:42;6.65;;;2.25;;
11187;SDS011;5650;52.700;7.306;2022-08-21T08:28:09;12.20;;;2.90;;
11187;SDS011;5650;52.700;7.306;2022-08-21T08:30:37;8.30;;;2.53;;
11187;SDS011;5650;52.700;7.306;2022-08-21T08:33:04;7.05;;;2.42;;
11187;SDS011;5650;52.700;7.306;2022-08-21T08:35:31;9.68;;;2.30;;
11187;SDS011;5650;52.700;7.306;2022-08-21T08:38:00;5.78;;;2.10;;
11187;SDS011;5650;52.700;7.306;2022-08-21T08:40:32;9.82;;;2.58;;
11187;SDS011;5650;52.700;7.306;2022-08-21T08:43:09;6.55;;;2.58;;
11187;SDS011;5650;52.700;7.306;2022-08-21T08:45:37;9.82;;;2.78;;
11187;SDS011;5650;52.700;7.306;2022-08-21T08:48:08;7.93;;;3.15;;
11187;SDS011;5650;52.700;7.306;2022-08-21T08:50:40;8.23;;;2.63;;
11187;SDS011;5650;52.700;7.306;2022-08-21T08:53:12;6.97;;;2.50;;
11187;SDS011;5650;52.700;7.306;2022-08-21T08:55:45;11.13;;;2.63;;
11187;SDS011;5650;52.700;7.306;2022-08-21T08:58:20;8.25;;;2.72;;
11187;SDS011;5650;52.700;7.306;2022-08-21T09:00:51;8.35;;;2.75;;
11187;SDS011;5650;52.700;7.306;2022-08-21T09:03:20;10.23;;;2.80;;
11187;SDS011;5650;52.700;7.306;2022-08-21T09:05:49;11.27;;;2.95;;
11187;SDS011;5650;52.700;7.306;2022-08-21T09:08:29;7.68;;;2.80;;
11187;SDS011;5650;52.700;7.306;2022-08-21T09:11:09;8.45;;;2.78;;
11187;SDS011;5650;52.700;7.306;2022-08-21T09:13:45;8.00;;;2.50;;
11187;SDS011;5650;52.700;7.306;2022-08-21T09:16:28;6.75;;;2.53;;
11187;SDS011;5650;52.700;7.306;2022-08-21T09:19:07;8.82;;;2.63;;
11187;SDS011;5650;52.700;7.306;2022-08-21T09:21:42;16.67;;;3.03;;
11187;SDS011;5650;52.700;7.306;2022-08-21T09:24:22;9.80;;;2.65;;
11187;SDS011;5650;52.700;7.306;2022-08-21T09:26:57;9.68;;;2.58;;
11187;SDS011;5650;52.700;7.306;2022-08-21T09:29:31;9.27;;;2.47;;
11187;SDS011;5650;52.700;7.306;2022-08-21T09:32:02;8.43;;;2.50;;
11187;SDS011;5650;52.700;7.306;2022-08-21T09:34:37;7.75;;;2.40;;
11187;SDS011;5650;52.700;7.306;2022-08-21T09:37:17;15.43;;;3.13;;
11187;SDS011;5650;52.700;7.306;2022-08-21T09:39:46;10.40;;;2.72;;
11187;SDS011;5650;52.700;7.306;2022-08-21T09:42:21;7.22;;;2.33;;
11187;SDS011;5650;52.700;7.306;2022-08-21T09:45:00;10.43;;;2.90;;
11187;SDS011;5650;52.700;7.306;2022-08-21T09:47:40;9.82;;;3.13;;
11187;SDS011;5650;52.700;7.306;2022-08-21T09:50:12;9.40;;;2.83;;
11187;SDS011;5650;52.700;7.306;2022-08-21T09:52:43;9.98;;;2.90;;
11187;SDS011;5650;52.700;7.306;2022-08-21T09:55:19;7.13;;;2.58;;
11187;SDS011;5650;52.700;7.306;2022-08-21T09:58:06;9.18;;;2.50;;
11187;SDS011;5650;52.700;7.306;2022-08-21T10:00:34;8.45;;;2.45;;
11187;SDS011;5650;52.700;7.306;2022-08-21T10:03:09;11.40;;;2.58;;
11187;SDS011;5650;52.700;7.306;2022-08-21T10:05:49;8.93;;;2.38;;
11187;SDS011;5650;52.700;7.306;2022-08-21T10:08:26;10.18;;;2.28;;
11187;SDS011;5650;52.700;7.306;2022-08-21T10:10:57;8.15;;;2.42;;
11187;SDS011;5650;52.700;7.306;2022-08-21T10:13:46;5.22;;;2.28;;
11187;SDS011;5650;52.700;7.306;2022-08-21T10:16:24;8.15;;;2.60;;
11187;SDS011;5650;52.700;7.306;2022-08-21T10:19:06;6.60;;;2.03;;
11187;SDS011;5650;52.700;7.306;2022-08-21T10:21:47;7.30;;;2.35;;
11187;SDS011;5650;52.700;7.306;2022-08-21T10:24:29;7.05;;;2.47;;
11187;SDS011;5650;52.700;7.306;2022-08-21T10:27:04;9.00;;;2.47;;
11187;SDS011;5650;52.700;7.306;2022-08-21T10:29:47;10.27;;;2.92;;
11187;SDS011;5650;52.700;7.306;2022-08-21T10:32:27;6.93;;;2.47;;
11187;SDS011;5650;52.700;7.306;2022-08-21T10:35:10;8.68;;;2.65;;
11187;SDS011;5650;52.700;7.306;2022-08-21T10:37:48;8.43;;;2.40;;
11187;SDS011;5650;52.700;7.306;2022-08-21T10:40:25;8.10;;;2.28;;
11187;SDS011;5650;52.700;7.306;2022-08-21T10:43:02;5.93;;;2.15;;
11187;SDS011;5650;52.700;7.306;2022-08-21T10:45:45;7.88;;;2.28;;
11187;SDS011;5650;52.700;7.306;2022-08-21T10:48:28;7.70;;;1.92;;
11187;SDS011;5650;52.700;7.306;2022-08-21T10:51:06;6.82;;;2.10;;
11187;SDS011;5650;52.700;7.306;2022-08-21T10:53:51;7.47;;;2.00;;
11187;SDS011;5650;52.700;7.306;2022-08-21T10:56:26;7.07;;;1.83;;
11187;SDS011;5650;52.700;7.306;2022-08-21T10:59:04;6.07;;;2.10;;
11187;SDS011;5650;52.700;7.306;2022-08-21T11:01:54;4.57;;;2.08;;
11187;SDS011;5650;52.700;7.306;2022-08-21T11:04:28;5.63;;;2.17;;
11187;SDS011;5650;52.700;7.306;2022-08-21T11:07:00;5.40;;;2.20;;
11187;SDS011;5650;52.700;7.306;2022-08-21T11:09:30;5.45;;;2.30;;
11187;SDS011;5650;52.700;7.306;2022-08-21T11:11:58;6.95;;;2.38;;
11187;SDS011;5650;52.700;7.306;2022-08-21T11:14:33;6.30;;;1.75;;
11187;SDS011;5650;52.700;7.306;2022-08-21T11:17:16;5.82;;;2.20;;
11187;SDS011;5650;52.700;7.306;2022-08-21T11:19:52;7.45;;;2.33;;
11187;SDS011;5650;52.700;7.306;2022-08-21T11:22:28;5.93;;;2.35;;
11187;SDS011;5650;52.700;7.306;2022-08-21T11:25:09;6.68;;;2.78;;
11187;SDS011;5650;52.700;7.306;2022-08-21T11:27:46;6.13;;;2.30;;
11187;SDS011;5650;52.700;7.306;2022-08-21T11:30:20;9.90;;;2.45;;
11187;SDS011;5650;52.700;7.306;2022-08-21T11:33:01;6.10;;;2.03;;
11187;SDS011;5650;52.700;7.306;2022-08-21T11:35:39;5.60;;;2.17;;
11187;SDS011;5650;52.700;7.306;2022-08-21T11:38:34;8.82;;;2.03;;
11187;SDS011;5650;52.700;7.306;2022-08-21T11:41:11;4.63;;;1.95;;
11187;SDS011;5650;52.700;7.306;2022-08-21T11:43:50;3.97;;;1.70;;
11187;SDS011;5650;52.700;7.306;2022-08-21T11:46:28;8.55;;;2.08;;
11187;SDS011;5650;52.700;7.306;2022-08-21T11:49:10;6.07;;;2.00;;
11187;SDS011;5650;52.700;7.306;2022-08-21T11:52:08;7.40;;;2.25;;
11187;SDS011;5650;52.700;7.306;2022-08-21T11:54:42;8.45;;;2.20;;
11187;SDS011;5650;52.700;7.306;2022-08-21T11:57:14;4.85;;;1.60;;
11187;SDS011;5650;52.700;7.306;2022-08-21T11:59:46;5.70;;;1.83;;
11187;SDS011;5650;52.700;7.306;2022-08-21T12:02:22;5.47;;;1.65;;
11187;SDS011;5650;52.700;7.306;2022-08-21T12:04:54;5.65;;;1.83;;
11187;SDS011;5650;52.700;7.306;2022-08-21T12:07:30;3.40;;;1.40;;
11187;SDS011;5650;52.700;7.306;2022-08-21T12:10:00;3.75;;;1.48;;
11187;SDS011;5650;52.700;7.306;2022-08-21T12:12:30;5.07;;;1.40;;
11187;SDS011;5650;52.700;7.306;2022-08-21T12:15:13;3.92;;;1.60;;
11187;SDS011;5650;52.700;7.306;2022-08-21T12:17:57;4.90;;;1.92;;
11187;SDS011;5650;52.700;7.306;2022-08-21T12:20:32;5.82;;;1.80;;
11187;SDS011;5650;52.700;7.306;2022-08-21T12:26:25;5.40;;;1.95;;
11187;SDS011;5650;52.700;7.306;2022-08-21T12:29:03;6.43;;;1.98;;
11187;SDS011;5650;52.700;7.306;2022-08-21T12:31:47;7.82;;;1.70;;
11187;SDS011;5650;52.700;7.306;2022-08-21T12:34:21;6.78;;;2.22;;
11187;SDS011;5650;52.700;7.306;2022-08-21T12:36:57;7.22;;;1.83;;
11187;SDS011;5650;52.700;7.306;2022-08-21T12:39:26;5.32;;;1.50;;
11187;SDS011;5650;52.700;7.306;2022-08-21T12:41:58;6.90;;;2.10;;
11187;SDS011;5650;52.700;7.306;2022-08-21T12:44:35;4.93;;;1.80;;
11187;SDS011;5650;52.700;7.306;2022-08-21T12:47:16;7.07;;;1.45;;
11187;SDS011;5650;52.700;7.306;2022-08-21T12:49:54;6.15;;;1.80;;
11187;SDS011;5650;52.700;7.306;2022-08-21T12:52:29;5.55;;;1.83;;
11187;SDS011;5650;52.700;7.306;2022-08-21T12:54:58;2.65;;;1.40;;
11187;SDS011;5650;52.700;7.306;2022-08-21T12:57:26;6.30;;;1.77;;
11187;SDS011;5650;52.700;7.306;2022-08-21T12:59:57;9.00;;;2.20;;
11187;SDS011;5650;52.700;7.306;2022-08-21T13:02:32;7.25;;;2.13;;
11187;SDS011;5650;52.700;7.306;2022-08-21T13:05:13;5.45;;;1.63;;
11187;SDS011;5650;52.700;7.306;2022-08-21T13:07:46;5.75;;;1.80;;
11187;SDS011;5650;52.700;7.306;2022-08-21T13:10:16;4.10;;;1.60;;
11187;SDS011;5650;52.700;7.306;2022-08-21T13:12:46;4.65;;;1.60;;
11187;SDS011;5650;52.700;7.306;2022-08-21T13:15:14;6.40;;;1.63;;
11187;SDS011;5650;52.700;7.306;2022-08-21T13:17:54;5.45;;;1.60;;
11187;SDS011;5650;52.700;7.306;2022-08-21T13:20:31;6.43;;;1.77;;
11187;SDS011;5650;52.700;7.306;2022-08-21T13:23:07;8.00;;;1.80;;
11187;SDS011;5650;52.700;7.306;2022-08-21T13:25:46;7.68;;;1.92;;
11187;SDS011;5650;52.700;7.306;2022-08-21T13:28:20;4.85;;;1.50;;
11187;SDS011;5650;52.700;7.306;2022-08-21T13:30:49;6.00;;;1.67;;
11187;SDS011;5650;52.700;7.306;2022-08-21T13:33:20;5.30;;;2.10;;
11187;SDS011;5650;52.700;7.306;2022-08-21T13:35:59;5.25;;;1.70;;
11187;SDS011;5650;52.700;7.306;2022-08-21T13:38:34;5.97;;;2.00;;
11187;SDS011;5650;52.700;7.306;2022-08-21T13:41:05;5.30;;;1.77;;
11187;SDS011;5650;52.700;7.306;2022-08-21T13:43:37;6.72;;;2.03;;
11187;SDS011;5650;52.700;7.306;2022-08-21T13:46:10;6.13;;;1.70;;
11187;SDS011;5650;52.700;7.306;2022-08-21T13:48:39;7.03;;;1.80;;
11187;SDS011;5650;52.700;7.306;2022-08-21T13:51:09;5.30;;;1.98;;
11187;SDS011;5650;52.700;7.306;2022-08-21T13:53:45;6.25;;;1.60;;
11187;SDS011;5650;52.700;7.306;2022-08-21T13:56:27;6.00;;;1.70;;
11187;SDS011;5650;52.700;7.306;2022-08-21T13:58:59;6.40;;;1.67;;
11187;SDS011;5650;52.700;7.306;2022-08-21T14:01:28;11.77;;;2.55;;
11187;SDS011;5650;52.700;7.306;2022-08-21T14:04:03;7.32;;;1.80;;
11187;SDS011;5650;52.700;7.306;2022-08-21T14:06:35;10.73;;;2.10;;
11187;SDS011;5650;52.700;7.306;2022-08-21T14:09:10;9.07;;;1.92;;
11187;SDS011;5650;52.700;7.306;2022-08-21T14:11:40;5.82;;;1.75;;
11187;SDS011;5650;52.700;7.306;2022-08-21T14:14:14;8.50;;;1.73;;
11187;SDS011;5650;52.700;7.306;2022-08-21T14:16:55;6.95;;;2.10;;
11187;SDS011;5650;52.700;7.306;2022-08-21T14:19:26;6.97;;;1.77;;
11187;SDS011;5650;52.700;7.306;2022-08-21T14:22:12;4.60;;;1.60;;
11187;SDS011;5650;52.700;7.306;2022-08-21T14:24:49;4.32;;;1.83;;
11187;SDS011;5650;52.700;7.306;2022-08-21T14:27:24;10.68;;;1.92;;
11187;SDS011;5650;52.700;7.306;2022-08-21T14:30:09;6.07;;;1.85;;
11187;SDS011;5650;52.700;7.306;2022-08-21T14:32:40;4.88;;;1.80;;
11187;SDS011;5650;52.700;7.306;2022-08-21T14:35:07;6.47;;;1.85;;
11187;SDS011;5650;52.700;7.306;2022-08-21T14:37:37;6.28;;;1.95;;
11187;SDS011;5650;52.700;7.306;2022-08-21T14:40:10;6.43;;;1.98;;
11187;SDS011;5650;52.700;7.306;2022-08-21T14:42:37;6.65;;;2.08;;
11187;SDS011;5650;52.700;7.306;2022-08-21T14:45:17;6.70;;;1.63;;
11187;SDS011;5650;52.700;7.306;2022-08-21T14:47:50;8.52;;;2.10;;
11187;SDS011;5650;52.700;7.306;2022-08-21T14:50:20;6.05;;;1.80;;
11187;SDS011;5650;52.700;7.306;2022-08-21T14:52:49;5.55;;;1.75;;
11187;SDS011;5650;52.700;7.306;2022-08-21T14:55:17;4.80;;;1.63;;
11187;SDS011;5650;52.700;7.306;2022-08-21T14:57:46;4.57;;;1.90;;
11187;SDS011;5650;52.700;7.306;2022-08-21T15:00:16;5.00;;;1.55;;
11187;SDS011;5650;52.700;7.306;2022-08-21T15:02:51;5.78;;;1.95;;
11187;SDS011;5650;52.700;7.306;2022-08-21T15:05:24;8.02;;;2.30;;
11187;SDS011;5650;52.700;7.306;2022-08-21T15:07:53;5.25;;;1.45;;
11187;SDS011;5650;52.700;7.306;2022-08-21T15:10:20;5.47;;;1.63;;
11187;SDS011;5650;52.700;7.306;2022-08-21T15:12:47;6.15;;;2.10;;
11187;SDS011;5650;52.700;7.306;2022-08-21T15:15:26;3.38;;;1.38;;
11187;SDS011;5650;52.700;7.306;2022-08-21T15:17:56;7.00;;;1.95;;
11187;SDS011;5650;52.700;7.306;2022-08-21T15:20:23;5.82;;;2.17;;
11187;SDS011;5650;52.700;7.306;2022-08-21T15:22:52;4.32;;;1.70;;
11187;SDS011;5650;52.700;7.306;2022-08-21T15:25:19;7.07;;;2.08;;
11187;SDS011;5650;52.700;7.306;2022-08-21T15:27:49;7.47;;;2.10;;
11187;SDS011;5650;52.700;7.306;2022-08-21T15:30:16;6.28;;;1.58;;
11187;SDS011;5650;52.700;7.306;2022-08-21T15:32:43;10.57;;;2.10;;
11187;SDS011;5650;52.700;7.306;2022-08-21T15:35:17;6.88;;;2.00;;